sensor_id;sensor_type;location;lat;lon;timestamp;pressure;altitude;pressure_sealevel;temperature;humidity
54262;BME280;40174;52.364;6.452;2022-08-11T00:01:05;102165.75;;;18.77;84.17
54262;BME280;40174;52.364;6.452;2022-08-11T00:03:33;102168.97;;;18.71;85.26
54262;BME280;40174;52.364;6.452;2022-08-11T00:06:01;102168.28;;;18.69;85.37
54262;BME280;40174;52.364;6.452;2022-08-11T00:08:30;102160.66;;;18.64;85.83
54262;BME280;40174;52.364;6.452;2022-08-11T00:11:01;102171.25;;;18.66;85.85
54262;BME280;40174;52.364;6.452;2022-08-11T00:13:33;102163.91;;;18.58;86.71
54262;BME280;40174;52.364;6.452;2022-08-11T00:16:01;102160.81;;;18.53;86.99
54262;BME280;40174;52.364;6.452;2022-08-11T00:18:30;102155.47;;;18.53;87.38
54262;BME280;40174;52.364;6.452;2022-08-11T00:21:04;102164.22;;;18.55;87.71
54262;BME280;40174;52.364;6.452;2022-08-11T00:23:32;102163.94;;;18.48;88.40
54262;BME280;40174;52.364;6.452;2022-08-11T00:26:06;102166.22;;;18.43;88.64
54262;BME280;40174;52.364;6.452;2022-08-11T00:28:34;102165.34;;;18.43;88.81
54262;BME280;40174;52.364;6.452;2022-08-11T00:31:03;102161.28;;;18.39;89.51
54262;BME280;40174;52.364;6.452;2022-08-11T00:33:33;102162.97;;;18.40;88.97
54262;BME280;40174;52.364;6.452;2022-08-11T00:36:02;102164.38;;;18.34;89.62
54262;BME280;40174;52.364;6.452;2022-08-11T00:38:34;102169.47;;;18.27;90.06
54262;BME280;40174;52.364;6.452;2022-08-11T00:41:10;102165.78;;;18.28;90.14
54262;BME280;40174;52.364;6.452;2022-08-11T00:43:50;102162.41;;;18.26;90.33
54262;BME280;40174;52.364;6.452;2022-08-11T00:46:31;102163.66;;;18.22;90.55
54262;BME280;40174;52.364;6.452;2022-08-11T00:49:10;102159.88;;;18.15;91.13
54262;BME280;40174;52.364;6.452;2022-08-11T00:51:58;102165.78;;;18.09;92.01
54262;BME280;40174;52.364;6.452;2022-08-11T00:54:59;102160.00;;;18.04;92.99
54262;BME280;40174;52.364;6.452;2022-08-11T00:57:50;102162.13;;;18.00;93.66
54262;BME280;40174;52.364;6.452;2022-08-11T01:00:20;102164.09;;;17.98;94.09
54262;BME280;40174;52.364;6.452;2022-08-11T01:03:09;102172.97;;;17.99;93.99
54262;BME280;40174;52.364;6.452;2022-08-11T01:09:24;102167.03;;;17.95;94.45
54262;BME280;40174;52.364;6.452;2022-08-11T01:12:08;102173.50;;;17.93;94.64
54262;BME280;40174;52.364;6.452;2022-08-11T01:21:39;102177.72;;;17.85;96.06
54262;BME280;40174;52.364;6.452;2022-08-11T01:27:38;102181.03;;;17.78;96.61
54262;BME280;40174;52.364;6.452;2022-08-11T01:30:42;102176.25;;;17.72;97.21
54262;BME280;40174;52.364;6.452;2022-08-11T01:36:49;102170.63;;;17.75;98.02
54262;BME280;40174;52.364;6.452;2022-08-11T01:39:36;102174.84;;;17.67;97.68
54262;BME280;40174;52.364;6.452;2022-08-11T01:45:31;102175.38;;;17.52;99.28
54262;BME280;40174;52.364;6.452;2022-08-11T01:48:05;102172.81;;;17.50;99.00
54262;BME280;40174;52.364;6.452;2022-08-11T01:50:56;102167.03;;;17.45;99.47
54262;BME280;40174;52.364;6.452;2022-08-11T01:53:33;102166.63;;;17.40;99.87
54262;BME280;40174;52.364;6.452;2022-08-11T01:56:14;102159.44;;;17.40;99.97
54262;BME280;40174;52.364;6.452;2022-08-11T01:58:48;102174.03;;;17.36;100.00
54262;BME280;40174;52.364;6.452;2022-08-11T02:01:31;102172.63;;;17.32;100.00
54262;BME280;40174;52.364;6.452;2022-08-11T02:04:11;102164.88;;;17.29;100.00
54262;BME280;40174;52.364;6.452;2022-08-11T02:06:47;102175.69;;;17.28;100.00
54262;BME280;40174;52.364;6.452;2022-08-11T02:09:32;102163.84;;;17.20;100.00
54262;BME280;40174;52.364;6.452;2022-08-11T02:12:13;102163.03;;;17.20;100.00
54262;BME280;40174;52.364;6.452;2022-08-11T02:14:45;102158.91;;;17.16;100.00
54262;BME280;40174;52.364;6.452;2022-08-11T02:17:18;102160.16;;;17.12;100.00
54262;BME280;40174;52.364;6.452;2022-08-11T02:19:52;102161.72;;;17.14;100.00
54262;BME280;40174;52.364;6.452;2022-08-11T02:22:49;102158.19;;;17.14;100.00
54262;BME280;40174;52.364;6.452;2022-08-11T02:25:39;102164.78;;;17.10;100.00
54262;BME280;40174;52.364;6.452;2022-08-11T02:28:16;102163.94;;;17.09;100.00
54262;BME280;40174;52.364;6.452;2022-08-11T02:30:45;102158.16;;;17.04;100.00
54262;BME280;40174;52.364;6.452;2022-08-11T02:33:40;102154.38;;;17.07;100.00
54262;BME280;40174;52.364;6.452;2022-08-11T02:36:07;102153.19;;;16.99;100.00
54262;BME280;40174;52.364;6.452;2022-08-11T02:38:41;102153.59;;;16.95;100.00
54262;BME280;40174;52.364;6.452;2022-08-11T02:41:15;102146.00;;;16.90;100.00
54262;BME280;40174;52.364;6.452;2022-08-11T02:44:10;102150.06;;;16.85;100.00
54262;BME280;40174;52.364;6.452;2022-08-11T02:46:48;102146.94;;;16.79;100.00
54262;BME280;40174;52.364;6.452;2022-08-11T02:49:26;102154.94;;;16.79;100.00
54262;BME280;40174;52.364;6.452;2022-08-11T02:52:30;102148.00;;;16.77;100.00
54262;BME280;40174;52.364;6.452;2022-08-11T02:55:17;102150.81;;;16.75;100.00
54262;BME280;40174;52.364;6.452;2022-08-11T02:57:51;102159.47;;;16.68;100.00
54262;BME280;40174;52.364;6.452;2022-08-11T03:00:20;102153.88;;;16.71;100.00
54262;BME280;40174;52.364;6.452;2022-08-11T03:02:59;102149.78;;;16.67;100.00
54262;BME280;40174;52.364;6.452;2022-08-11T03:05:46;102155.34;;;16.63;100.00
54262;BME280;40174;52.364;6.452;2022-08-11T03:08:23;102157.34;;;16.61;100.00
54262;BME280;40174;52.364;6.452;2022-08-11T03:11:04;102160.84;;;16.62;100.00
54262;BME280;40174;52.364;6.452;2022-08-11T03:14:03;102154.66;;;16.61;100.00
54262;BME280;40174;52.364;6.452;2022-08-11T03:16:57;102148.84;;;16.56;100.00
54262;BME280;40174;52.364;6.452;2022-08-11T03:19:32;102155.19;;;16.55;100.00
54262;BME280;40174;52.364;6.452;2022-08-11T03:22:07;102148.91;;;16.45;100.00
54262;BME280;40174;52.364;6.452;2022-08-11T03:24:43;102147.25;;;16.44;100.00
54262;BME280;40174;52.364;6.452;2022-08-11T03:27:25;102140.34;;;16.41;100.00
54262;BME280;40174;52.364;6.452;2022-08-11T03:30:05;102146.91;;;16.37;100.00
54262;BME280;40174;52.364;6.452;2022-08-11T03:32:37;102148.13;;;16.33;100.00
54262;BME280;40174;52.364;6.452;2022-08-11T03:35:08;102144.63;;;16.33;100.00
54262;BME280;40174;52.364;6.452;2022-08-11T03:37:49;102144.88;;;16.30;100.00
54262;BME280;40174;52.364;6.452;2022-08-11T03:40:42;102138.34;;;16.23;100.00
54262;BME280;40174;52.364;6.452;2022-08-11T03:43:46;102144.91;;;16.18;100.00
54262;BME280;40174;52.364;6.452;2022-08-11T03:46:26;102140.84;;;16.14;100.00
54262;BME280;40174;52.364;6.452;2022-08-11T03:49:00;102148.34;;;16.09;100.00
54262;BME280;40174;52.364;6.452;2022-08-11T03:51:38;102147.50;;;16.09;100.00
54262;BME280;40174;52.364;6.452;2022-08-11T03:54:21;102141.84;;;16.02;100.00
54262;BME280;40174;52.364;6.452;2022-08-11T03:57:20;102140.41;;;15.98;100.00
54262;BME280;40174;52.364;6.452;2022-08-11T04:03:29;102136.59;;;15.79;100.00
54262;BME280;40174;52.364;6.452;2022-08-11T04:06:27;102144.84;;;15.76;100.00
54262;BME280;40174;52.364;6.452;2022-08-11T04:12:00;102141.56;;;15.73;100.00
54262;BME280;40174;52.364;6.452;2022-08-11T04:14:50;102140.09;;;15.69;100.00
54262;BME280;40174;52.364;6.452;2022-08-11T04:18:04;102131.63;;;15.64;100.00
54262;BME280;40174;52.364;6.452;2022-08-11T04:24:28;102136.13;;;15.63;100.00
54262;BME280;40174;52.364;6.452;2022-08-11T04:27:32;102130.53;;;15.66;100.00
54262;BME280;40174;52.364;6.452;2022-08-11T04:30:08;102130.63;;;15.65;100.00
54262;BME280;40174;52.364;6.452;2022-08-11T04:33:00;102128.34;;;15.60;100.00
54262;BME280;40174;52.364;6.452;2022-08-11T04:35:38;102132.72;;;15.61;100.00
54262;BME280;40174;52.364;6.452;2022-08-11T04:38:37;102131.50;;;15.65;100.00
54262;BME280;40174;52.364;6.452;2022-08-11T04:41:42;102133.19;;;15.66;100.00
54262;BME280;40174;52.364;6.452;2022-08-11T04:45:00;102131.03;;;15.60;100.00
54262;BME280;40174;52.364;6.452;2022-08-11T04:47:51;102129.56;;;15.67;100.00
54262;BME280;40174;52.364;6.452;2022-08-11T04:50:56;102130.41;;;15.68;100.00
54262;BME280;40174;52.364;6.452;2022-08-11T04:53:56;102132.09;;;15.69;100.00
54262;BME280;40174;52.364;6.452;2022-08-11T04:56:45;102131.03;;;15.71;100.00
54262;BME280;40174;52.364;6.452;2022-08-11T04:59:47;102134.56;;;15.72;100.00
54262;BME280;40174;52.364;6.452;2022-08-11T05:03:00;102130.91;;;15.73;100.00
54262;BME280;40174;52.364;6.452;2022-08-11T05:06:01;102130.66;;;15.76;100.00
54262;BME280;40174;52.364;6.452;2022-08-11T05:08:51;102124.47;;;15.75;100.00
54262;BME280;40174;52.364;6.452;2022-08-11T05:11:38;102128.59;;;15.79;100.00
54262;BME280;40174;52.364;6.452;2022-08-11T05:14:32;102127.38;;;15.84;100.00
54262;BME280;40174;52.364;6.452;2022-08-11T05:17:24;102127.09;;;15.87;100.00
54262;BME280;40174;52.364;6.452;2022-08-11T05:20:11;102125.16;;;15.89;100.00
54262;BME280;40174;52.364;6.452;2022-08-11T05:23:05;102129.00;;;15.96;100.00
54262;BME280;40174;52.364;6.452;2022-08-11T05:25:54;102133.00;;;16.02;100.00
54262;BME280;40174;52.364;6.452;2022-08-11T05:28:42;102132.50;;;16.08;100.00
54262;BME280;40174;52.364;6.452;2022-08-11T05:31:35;102143.03;;;16.09;100.00
54262;BME280;40174;52.364;6.452;2022-08-11T05:34:23;102139.13;;;16.13;100.00
54262;BME280;40174;52.364;6.452;2022-08-11T05:37:11;102143.13;;;16.19;100.00
54262;BME280;40174;52.364;6.452;2022-08-11T05:39:43;102143.47;;;16.26;100.00
54262;BME280;40174;52.364;6.452;2022-08-11T05:42:28;102137.97;;;16.27;100.00
54262;BME280;40174;52.364;6.452;2022-08-11T05:45:15;102142.81;;;16.33;100.00
54262;BME280;40174;52.364;6.452;2022-08-11T05:48:03;102146.78;;;16.39;100.00
54262;BME280;40174;52.364;6.452;2022-08-11T05:50:55;102155.47;;;16.41;100.00
54262;BME280;40174;52.364;6.452;2022-08-11T05:53:48;102150.75;;;16.45;100.00
54262;BME280;40174;52.364;6.452;2022-08-11T05:56:33;102143.34;;;16.48;100.00
54262;BME280;40174;52.364;6.452;2022-08-11T05:59:11;102139.41;;;16.52;100.00
54262;BME280;40174;52.364;6.452;2022-08-11T06:01:40;102141.84;;;16.55;100.00
54262;BME280;40174;52.364;6.452;2022-08-11T06:04:15;102138.66;;;16.61;100.00
54262;BME280;40174;52.364;6.452;2022-08-11T06:06:48;102144.56;;;16.65;100.00
54262;BME280;40174;52.364;6.452;2022-08-11T06:09:21;102142.31;;;16.70;100.00
54262;BME280;40174;52.364;6.452;2022-08-11T06:11:49;102144.63;;;16.75;100.00
54262;BME280;40174;52.364;6.452;2022-08-11T06:14:17;102142.44;;;16.80;100.00
54262;BME280;40174;52.364;6.452;2022-08-11T06:16:47;102144.97;;;16.81;100.00
54262;BME280;40174;52.364;6.452;2022-08-11T06:19:15;102144.59;;;16.86;100.00
54262;BME280;40174;52.364;6.452;2022-08-11T06:21:44;102141.91;;;16.86;100.00
54262;BME280;40174;52.364;6.452;2022-08-11T06:24:12;102140.81;;;16.89;100.00
54262;BME280;40174;52.364;6.452;2022-08-11T06:26:40;102144.31;;;16.89;100.00
54262;BME280;40174;52.364;6.452;2022-08-11T06:29:08;102140.53;;;16.92;100.00
54262;BME280;40174;52.364;6.452;2022-08-11T06:31:36;102142.78;;;16.96;100.00
54262;BME280;40174;52.364;6.452;2022-08-11T06:34:08;102142.41;;;17.01;100.00
54262;BME280;40174;52.364;6.452;2022-08-11T06:36:45;102144.66;;;17.06;100.00
54262;BME280;40174;52.364;6.452;2022-08-11T06:39:21;102144.00;;;17.13;100.00
54262;BME280;40174;52.364;6.452;2022-08-11T06:41:52;102142.59;;;17.19;100.00
54262;BME280;40174;52.364;6.452;2022-08-11T06:44:38;102146.44;;;17.26;100.00
54262;BME280;40174;52.364;6.452;2022-08-11T06:47:08;102142.38;;;17.32;100.00
54262;BME280;40174;52.364;6.452;2022-08-11T06:49:38;102139.59;;;17.33;100.00
54262;BME280;40174;52.364;6.452;2022-08-11T06:52:32;102146.19;;;17.39;100.00
54262;BME280;40174;52.364;6.452;2022-08-11T06:55:04;102145.38;;;17.48;100.00
54262;BME280;40174;52.364;6.452;2022-08-11T06:57:32;102146.69;;;17.54;100.00
54262;BME280;40174;52.364;6.452;2022-08-11T07:00:20;102153.28;;;17.59;100.00
54262;BME280;40174;52.364;6.452;2022-08-11T07:02:57;102155.41;;;17.65;100.00
54262;BME280;40174;52.364;6.452;2022-08-11T07:05:30;102152.03;;;17.73;100.00
54262;BME280;40174;52.364;6.452;2022-08-11T07:08:54;102146.06;;;17.91;100.00
54262;BME280;40174;52.364;6.452;2022-08-11T07:12:00;102143.13;;;18.03;100.00
54262;BME280;40174;52.364;6.452;2022-08-11T07:14:51;102152.00;;;18.23;100.00
54262;BME280;40174;52.364;6.452;2022-08-11T07:17:41;102144.63;;;18.55;97.78
54262;BME280;40174;52.364;6.452;2022-08-11T07:20:14;102136.53;;;18.74;95.67
54262;BME280;40174;52.364;6.452;2022-08-11T07:23:01;102134.59;;;18.86;95.35
54262;BME280;40174;52.364;6.452;2022-08-11T07:25:51;102133.91;;;19.11;93.92
54262;BME280;40174;52.364;6.452;2022-08-11T07:28:39;102131.16;;;19.21;94.06
54262;BME280;40174;52.364;6.452;2022-08-11T07:31:29;102131.41;;;19.38;93.51
54262;BME280;40174;52.364;6.452;2022-08-11T07:36:48;102136.91;;;19.82;90.23
54262;BME280;40174;52.364;6.452;2022-08-11T07:39:19;102144.72;;;19.93;90.12
54262;BME280;40174;52.364;6.452;2022-08-11T07:41:48;102140.50;;;20.26;86.00
54262;BME280;40174;52.364;6.452;2022-08-11T07:44:16;102139.31;;;20.65;84.28
54262;BME280;40174;52.364;6.452;2022-08-11T07:46:45;102138.28;;;20.84;83.89
54262;BME280;40174;52.364;6.452;2022-08-11T07:49:32;102138.53;;;20.99;82.12
54262;BME280;40174;52.364;6.452;2022-08-11T07:52:18;102134.78;;;21.26;80.02
54262;BME280;40174;52.364;6.452;2022-08-11T07:54:59;102134.38;;;21.47;79.38
54262;BME280;40174;52.364;6.452;2022-08-11T07:57:30;102136.44;;;21.69;77.65
54262;BME280;40174;52.364;6.452;2022-08-11T08:00:15;102131.09;;;22.10;74.67
54262;BME280;40174;52.364;6.452;2022-08-11T08:03:00;102137.19;;;22.20;73.69
54262;BME280;40174;52.364;6.452;2022-08-11T08:05:47;102136.53;;;22.51;73.50
54262;BME280;40174;52.364;6.452;2022-08-11T08:08:31;102137.13;;;22.86;71.17
54262;BME280;40174;52.364;6.452;2022-08-11T08:11:18;102129.13;;;23.17;68.42
54262;BME280;40174;52.364;6.452;2022-08-11T08:14:05;102131.88;;;23.40;68.95
54262;BME280;40174;52.364;6.452;2022-08-11T08:16:50;102135.22;;;23.74;63.38
54262;BME280;40174;52.364;6.452;2022-08-11T08:19:35;102136.78;;;23.99;63.12
54262;BME280;40174;52.364;6.452;2022-08-11T08:22:02;102138.97;;;24.19;62.46
54262;BME280;40174;52.364;6.452;2022-08-11T08:24:29;102140.88;;;24.33;60.57
54262;BME280;40174;52.364;6.452;2022-08-11T08:26:57;102140.47;;;24.59;59.50
54262;BME280;40174;52.364;6.452;2022-08-11T08:29:26;102138.06;;;24.79;56.96
54262;BME280;40174;52.364;6.452;2022-08-11T08:32:18;102135.00;;;25.12;56.89
54262;BME280;40174;52.364;6.452;2022-08-11T08:34:47;102145.44;;;25.30;56.32
54262;BME280;40174;52.364;6.452;2022-08-11T08:37:17;102133.56;;;25.46;56.02
54262;BME280;40174;52.364;6.452;2022-08-11T08:39:44;102141.16;;;25.72;53.40
54262;BME280;40174;52.364;6.452;2022-08-11T08:42:12;102150.34;;;25.92;53.65
54262;BME280;40174;52.364;6.452;2022-08-11T08:44:46;102145.88;;;26.06;51.94
54262;BME280;40174;52.364;6.452;2022-08-11T08:47:17;102136.84;;;26.21;52.46
54262;BME280;40174;52.364;6.452;2022-08-11T08:49:45;102133.50;;;26.47;50.63
54262;BME280;40174;52.364;6.452;2022-08-11T08:52:18;102124.44;;;26.61;49.64
54262;BME280;40174;52.364;6.452;2022-08-11T08:54:48;102141.28;;;26.85;51.04
54262;BME280;40174;52.364;6.452;2022-08-11T08:57:19;102133.66;;;27.02;46.95
54262;BME280;40174;52.364;6.452;2022-08-11T08:59:49;102139.56;;;27.12;47.22
54262;BME280;40174;52.364;6.452;2022-08-11T09:02:17;102136.03;;;27.18;45.04
54262;BME280;40174;52.364;6.452;2022-08-11T09:04:45;102130.31;;;27.41;47.51
54262;BME280;40174;52.364;6.452;2022-08-11T09:07:15;102123.47;;;27.58;47.05
54262;BME280;40174;52.364;6.452;2022-08-11T09:09:42;102135.44;;;27.84;43.52
54262;BME280;40174;52.364;6.452;2022-08-11T09:12:10;102134.00;;;27.95;44.50
54262;BME280;40174;52.364;6.452;2022-08-11T09:14:39;102137.38;;;28.10;43.39
54262;BME280;40174;52.364;6.452;2022-08-11T09:17:26;102126.88;;;28.20;42.92
54262;BME280;40174;52.364;6.452;2022-08-11T09:19:55;102131.69;;;28.38;42.21
54262;BME280;40174;52.364;6.452;2022-08-11T09:22:25;102123.78;;;28.50;41.73
54262;BME280;40174;52.364;6.452;2022-08-11T09:25:25;102130.66;;;28.66;39.76
54262;BME280;40174;52.364;6.452;2022-08-11T09:28:12;102134.16;;;28.80;38.39
54262;BME280;40174;52.364;6.452;2022-08-11T09:30:40;102137.88;;;28.99;37.86
54262;BME280;40174;52.364;6.452;2022-08-11T09:33:11;102133.91;;;29.08;37.56
54262;BME280;40174;52.364;6.452;2022-08-11T09:35:40;102133.22;;;29.26;36.40
54262;BME280;40174;52.364;6.452;2022-08-11T09:38:12;102132.94;;;29.34;34.82
54262;BME280;40174;52.364;6.452;2022-08-11T09:40:57;102131.00;;;29.41;35.61
54262;BME280;40174;52.364;6.452;2022-08-11T09:43:24;102130.31;;;29.53;34.78
54262;BME280;40174;52.364;6.452;2022-08-11T09:46:10;102129.53;;;29.84;35.28
54262;BME280;40174;52.364;6.452;2022-08-11T09:48:41;102120.63;;;29.95;34.11
54262;BME280;40174;52.364;6.452;2022-08-11T09:51:09;102119.44;;;30.16;33.91
54262;BME280;40174;52.364;6.452;2022-08-11T09:53:38;102120.41;;;30.29;33.95
54262;BME280;40174;52.364;6.452;2022-08-11T09:56:08;102118.47;;;30.54;33.91
54262;BME280;40174;52.364;6.452;2022-08-11T09:58:53;102117.19;;;30.75;33.90
54262;BME280;40174;52.364;6.452;2022-08-11T10:01:22;102116.78;;;30.97;34.14
54262;BME280;40174;52.364;6.452;2022-08-11T10:03:58;102112.81;;;31.11;33.02
54262;BME280;40174;52.364;6.452;2022-08-11T10:06:27;102116.69;;;31.34;34.56
54262;BME280;40174;52.364;6.452;2022-08-11T10:09:15;102116.34;;;31.30;30.99
54262;BME280;40174;52.364;6.452;2022-08-11T10:11:43;102110.88;;;31.30;32.39
54262;BME280;40174;52.364;6.452;2022-08-11T10:14:10;102104.03;;;31.39;30.48
54262;BME280;40174;52.364;6.452;2022-08-11T10:16:55;102109.59;;;31.63;32.51
54262;BME280;40174;52.364;6.452;2022-08-11T10:19:24;102103.19;;;31.69;32.16
54262;BME280;40174;52.364;6.452;2022-08-11T10:21:52;102103.81;;;31.95;31.53
54262;BME280;40174;52.364;6.452;2022-08-11T10:24:33;102098.16;;;32.08;29.78
54262;BME280;40174;52.364;6.452;2022-08-11T10:27:18;102100.19;;;32.13;29.82
54262;BME280;40174;52.364;6.452;2022-08-11T10:29:45;102099.84;;;32.09;29.94
54262;BME280;40174;52.364;6.452;2022-08-11T10:32:31;102100.66;;;32.33;28.88
54262;BME280;40174;52.364;6.452;2022-08-11T10:35:19;102095.56;;;32.37;29.21
54262;BME280;40174;52.364;6.452;2022-08-11T10:37:48;102099.25;;;32.54;29.28
54262;BME280;40174;52.364;6.452;2022-08-11T10:40:17;102101.97;;;32.66;29.78
54262;BME280;40174;52.364;6.452;2022-08-11T10:42:48;102104.94;;;32.64;27.45
54262;BME280;40174;52.364;6.452;2022-08-11T10:45:28;102097.31;;;32.78;28.61
54262;BME280;40174;52.364;6.452;2022-08-11T10:48:13;102095.28;;;32.85;28.88
54262;BME280;40174;52.364;6.452;2022-08-11T10:50:44;102096.25;;;32.79;27.31
54262;BME280;40174;52.364;6.452;2022-08-11T10:53:29;102094.72;;;33.00;27.46
54262;BME280;40174;52.364;6.452;2022-08-11T10:56:14;102090.84;;;33.25;28.92
54262;BME280;40174;52.364;6.452;2022-08-11T10:59:00;102081.66;;;33.31;27.72
54262;BME280;40174;52.364;6.452;2022-08-11T11:01:30;102089.81;;;33.43;27.71
54262;BME280;40174;52.364;6.452;2022-08-11T11:04:00;102087.81;;;33.38;26.68
54262;BME280;40174;52.364;6.452;2022-08-11T11:06:36;102085.34;;;33.53;26.71
54262;BME280;40174;52.364;6.452;2022-08-11T11:09:13;102086.91;;;33.49;27.34
54262;BME280;40174;52.364;6.452;2022-08-11T11:11:42;102075.22;;;33.54;26.91
54262;BME280;40174;52.364;6.452;2022-08-11T11:14:30;102079.59;;;33.67;26.66
54262;BME280;40174;52.364;6.452;2022-08-11T11:17:24;102084.00;;;33.85;25.69
54262;BME280;40174;52.364;6.452;2022-08-11T11:20:13;102068.34;;;34.19;27.34
54262;BME280;40174;52.364;6.452;2022-08-11T11:22:43;102070.34;;;34.24;26.39
54262;BME280;40174;52.364;6.452;2022-08-11T11:25:21;102076.56;;;34.36;23.98
54262;BME280;40174;52.364;6.452;2022-08-11T11:28:09;102071.31;;;34.34;24.83
54262;BME280;40174;52.364;6.452;2022-08-11T11:30:44;102064.34;;;34.10;24.05
54262;BME280;40174;52.364;6.452;2022-08-11T11:33:19;102065.03;;;33.83;24.77
54262;BME280;40174;52.364;6.452;2022-08-11T11:36:00;102070.94;;;34.09;25.71
54262;BME280;40174;52.364;6.452;2022-08-11T11:38:34;102056.34;;;34.42;24.58
54262;BME280;40174;52.364;6.452;2022-08-11T11:41:01;102064.47;;;34.54;24.47
54262;BME280;40174;52.364;6.452;2022-08-11T11:43:47;102065.88;;;34.78;24.69
54262;BME280;40174;52.364;6.452;2022-08-11T11:46:15;102055.19;;;34.82;24.17
54262;BME280;40174;52.364;6.452;2022-08-11T11:48:43;102053.22;;;34.99;24.97
54262;BME280;40174;52.364;6.452;2022-08-11T11:51:09;102048.81;;;35.21;24.39
54262;BME280;40174;52.364;6.452;2022-08-11T11:53:41;102051.91;;;35.29;23.54
54262;BME280;40174;52.364;6.452;2022-08-11T11:56:08;102052.59;;;35.14;23.65
54262;BME280;40174;52.364;6.452;2022-08-11T11:58:36;102042.00;;;35.28;23.67
54262;BME280;40174;52.364;6.452;2022-08-11T12:01:21;102041.34;;;35.16;22.70
54262;BME280;40174;52.364;6.452;2022-08-11T12:03:50;102047.50;;;35.28;23.01
54262;BME280;40174;52.364;6.452;2022-08-11T12:06:21;102044.63;;;35.45;24.47
54262;BME280;40174;52.364;6.452;2022-08-11T12:08:52;102043.50;;;35.41;22.30
54262;BME280;40174;52.364;6.452;2022-08-11T12:11:22;102047.69;;;35.54;22.80
54262;BME280;40174;52.364;6.452;2022-08-11T12:14:08;102034.53;;;35.24;22.33
54262;BME280;40174;52.364;6.452;2022-08-11T12:16:36;102026.91;;;35.31;23.50
54262;BME280;40174;52.364;6.452;2022-08-11T12:19:06;102023.81;;;35.54;24.15
54262;BME280;40174;52.364;6.452;2022-08-11T12:21:35;102024.41;;;35.62;23.06
54262;BME280;40174;52.364;6.452;2022-08-11T12:24:05;102019.03;;;35.45;21.94
54262;BME280;40174;52.364;6.452;2022-08-11T12:26:49;102028.53;;;35.59;23.05
54262;BME280;40174;52.364;6.452;2022-08-11T12:29:39;102027.44;;;35.97;22.68
54262;BME280;40174;52.364;6.452;2022-08-11T12:32:06;102024.84;;;36.18;23.33
54262;BME280;40174;52.364;6.452;2022-08-11T12:34:33;102020.25;;;36.39;22.64
54262;BME280;40174;52.364;6.452;2022-08-11T12:37:01;102018.28;;;36.24;22.47
54262;BME280;40174;52.364;6.452;2022-08-11T12:39:34;102013.91;;;36.33;22.32
54262;BME280;40174;52.364;6.452;2022-08-11T12:42:20;102005.72;;;36.59;23.10
54262;BME280;40174;52.364;6.452;2022-08-11T12:45:09;102002.25;;;36.79;21.61
54262;BME280;40174;52.364;6.452;2022-08-11T12:48:04;101999.03;;;36.29;20.15
54262;BME280;40174;52.364;6.452;2022-08-11T12:50:53;101997.31;;;36.13;21.85
54262;BME280;40174;52.364;6.452;2022-08-11T12:53:42;101986.38;;;36.28;21.39
54262;BME280;40174;52.364;6.452;2022-08-11T12:56:12;101981.69;;;36.24;20.33
54262;BME280;40174;52.364;6.452;2022-08-11T12:58:57;101988.94;;;35.97;21.42
54262;BME280;40174;52.364;6.452;2022-08-11T13:01:44;101988.97;;;36.08;21.10
54262;BME280;40174;52.364;6.452;2022-08-11T13:04:28;101978.88;;;36.13;21.02
54262;BME280;40174;52.364;6.452;2022-08-11T13:07:14;101978.97;;;36.39;22.07
54262;BME280;40174;52.364;6.452;2022-08-11T13:09:43;101980.06;;;36.33;20.95
54262;BME280;40174;52.364;6.452;2022-08-11T13:12:11;101974.63;;;36.48;21.19
54262;BME280;40174;52.364;6.452;2022-08-11T13:14:56;101980.16;;;36.63;20.78
54262;BME280;40174;52.364;6.452;2022-08-11T13:17:24;101970.81;;;36.65;20.61
54262;BME280;40174;52.364;6.452;2022-08-11T13:19:54;101971.31;;;36.46;21.19
54262;BME280;40174;52.364;6.452;2022-08-11T13:22:23;101965.59;;;36.63;20.66
54262;BME280;40174;52.364;6.452;2022-08-11T13:24:52;101970.81;;;36.70;20.87
54262;BME280;40174;52.364;6.452;2022-08-11T13:27:21;101969.47;;;36.88;20.76
54262;BME280;40174;52.364;6.452;2022-08-11T13:29:49;101966.75;;;37.03;20.19
54262;BME280;40174;52.364;6.452;2022-08-11T13:32:38;101963.72;;;36.89;19.87
54262;BME280;40174;52.364;6.452;2022-08-11T13:35:05;101956.19;;;36.59;20.10
54262;BME280;40174;52.364;6.452;2022-08-11T13:37:33;101959.81;;;36.75;20.56
54262;BME280;40174;52.364;6.452;2022-08-11T13:40:00;101967.31;;;37.00;20.22
54262;BME280;40174;52.364;6.452;2022-08-11T13:42:28;101964.56;;;37.10;20.63
54262;BME280;40174;52.364;6.452;2022-08-11T13:44:55;101955.22;;;37.16;19.78
54262;BME280;40174;52.364;6.452;2022-08-11T13:47:23;101952.72;;;37.25;19.57
54262;BME280;40174;52.364;6.452;2022-08-11T13:49:51;101958.22;;;37.04;21.08
54262;BME280;40174;52.364;6.452;2022-08-11T13:52:18;101957.09;;;36.90;19.27
54262;BME280;40174;52.364;6.452;2022-08-11T13:54:47;101950.66;;;36.59;19.31
54262;BME280;40174;52.364;6.452;2022-08-11T13:57:15;101951.44;;;36.39;20.34
54262;BME280;40174;52.364;6.452;2022-08-11T13:59:45;101948.16;;;36.37;20.21
54262;BME280;40174;52.364;6.452;2022-08-11T14:02:14;101948.69;;;36.39;19.68
54262;BME280;40174;52.364;6.452;2022-08-11T14:04:44;101950.09;;;36.57;20.45
54262;BME280;40174;52.364;6.452;2022-08-11T14:07:17;101953.13;;;36.50;20.40
54262;BME280;40174;52.364;6.452;2022-08-11T14:09:47;101949.63;;;36.60;19.73
54262;BME280;40174;52.364;6.452;2022-08-11T14:12:18;101941.84;;;36.57;18.61
54262;BME280;40174;52.364;6.452;2022-08-11T14:15:09;101940.41;;;36.34;19.86
54262;BME280;40174;52.364;6.452;2022-08-11T14:17:40;101940.97;;;36.36;20.52